createdAt,value
2022-10-16T00:01:34.223Z,100955.41
2022-10-16T00:04:03.786Z,100952.69
2022-10-16T00:06:32.841Z,100963.50
2022-10-16T00:09:01.935Z,100952.13
2022-10-16T00:11:31.558Z,100943.94
2022-10-16T00:14:02.182Z,100951.31
2022-10-16T00:16:30.600Z,100954.00
2022-10-16T00:18:58.828Z,100953.44
2022-10-16T00:21:28.257Z,100961.31
2022-10-16T00:23:58.068Z,100960.50
2022-10-16T00:26:28.893Z,100941.22
2022-10-16T00:28:56.798Z,100948.28
2022-10-16T00:31:25.129Z,100945.00
2022-10-16T00:33:52.989Z,100947.69
2022-10-16T00:36:22.627Z,100950.41
2022-10-16T00:38:54.109Z,100956.06
2022-10-16T00:41:23.814Z,100969.59
2022-10-16T00:43:55.057Z,100968.78
2022-10-16T00:46:25.243Z,100968.19
2022-10-16T00:48:59.732Z,100947.94
2022-10-16T00:51:33.051Z,100976.31
2022-10-16T00:54:01.600Z,100971.97
2022-10-16T00:56:29.624Z,100967.63
2022-10-16T00:59:00.411Z,100950.16
2022-10-16T01:01:28.366Z,100967.88
2022-10-16T01:03:56.120Z,100970.56
2022-10-16T01:06:27.133Z,100963.53
2022-10-16T01:09:08.810Z,100957.28
2022-10-16T01:11:45.747Z,100955.66
2022-10-16T01:14:24.540Z,100946.72
2022-10-16T01:16:57.571Z,100955.91
2022-10-16T01:19:40.920Z,100954.25
2022-10-16T01:22:11.427Z,100954.25
2022-10-16T01:24:42.213Z,100948.84
2022-10-16T01:27:14.498Z,100958.03
2022-10-16T01:29:50.957Z,100965.09
2022-10-16T01:32:22.899Z,100951.97
2022-10-16T01:34:55.147Z,100968.03
2022-10-16T01:37:32.294Z,100966.41
2022-10-16T01:40:02.660Z,100964.50
2022-10-16T01:42:36.426Z,100968.28
2022-10-16T01:45:07.495Z,100975.81
2022-10-16T01:47:37.515Z,100967.72
2022-10-16T01:50:07.551Z,100965.00
2022-10-16T01:52:39.150Z,100960.66
2022-10-16T01:55:10.850Z,100952.13
2022-10-16T01:57:44.850Z,100972.28
2022-10-16T02:00:14.939Z,100971.47
2022-10-16T02:02:45.352Z,100958.84
2022-10-16T02:05:17.940Z,100947.94
2022-10-16T02:07:46.218Z,100972.78
2022-10-16T02:10:14.493Z,100983.59
2022-10-16T02:12:50.466Z,100977.38
2022-10-16T02:15:18.935Z,100965.97
2022-10-16T02:17:47.218Z,100964.09
2022-10-16T02:20:15.645Z,100955.16
2022-10-16T02:22:48.032Z,100961.63
2022-10-16T02:25:22.061Z,100954.59
2022-10-16T02:27:57.367Z,100969.16
2022-10-16T02:30:30.681Z,100962.94
2022-10-16T02:33:01.161Z,100959.09
2022-10-16T02:35:30.141Z,100956.31
2022-10-16T02:37:59.440Z,100973.19
2022-10-16T02:40:28.241Z,100975.06
2022-10-16T02:42:58.200Z,100958.63
2022-10-16T02:45:27.899Z,100970.97
2022-10-16T02:47:56.068Z,100969.91
2022-10-16T02:50:26.194Z,100970.97
2022-10-16T02:52:54.559Z,100977.44
2022-10-16T02:55:22.859Z,100976.63
2022-10-16T02:57:51.050Z,100960.63
2022-10-16T03:00:20.657Z,100972.28
2022-10-16T03:02:49.088Z,100963.22
2022-10-16T03:05:17.742Z,100980.63
2022-10-16T03:07:46.006Z,100978.28
2022-10-16T03:10:14.165Z,100991.66
2022-10-16T03:12:42.224Z,100977.56
2022-10-16T03:15:11.143Z,100978.63
2022-10-16T03:17:40.608Z,100986.75
2022-10-16T03:20:09.441Z,100999.19
2022-10-16T03:22:37.751Z,100999.19
2022-10-16T03:25:06.655Z,100986.75
2022-10-16T03:27:34.815Z,100999.44
2022-10-16T03:30:03.091Z,101002.16
2022-10-16T03:32:31.405Z,100999.44
2022-10-16T03:35:01.218Z,100988.63
2022-10-16T03:37:29.515Z,100973.38
2022-10-16T03:39:57.970Z,100992.16
2022-10-16T03:42:26.390Z,100983.03
2022-10-16T03:44:54.581Z,101010.25
2022-10-16T03:47:24.909Z,100998.19
2022-10-16T03:49:53.377Z,101013.22
2022-10-16T03:52:23.037Z,101015.91
2022-10-16T03:54:51.307Z,101027.78
2022-10-16T03:57:19.785Z,101026.16
2022-10-16T03:59:48.097Z,101003.84
2022-10-16T04:02:16.182Z,101027.78
2022-10-16T04:04:44.273Z,101016.16
2022-10-16T04:07:12.390Z,101022.63
2022-10-16T04:09:42.189Z,101005.38
2022-10-16T04:12:10.397Z,101026.16
2022-10-16T04:14:38.748Z,101036.13
2022-10-16T04:17:06.901Z,101028.03
2022-10-16T04:19:35.016Z,101013.50
2022-10-16T04:22:03.183Z,101038.03
2022-10-16T04:24:31.542Z,101029.09
2022-10-16T04:27:01.331Z,101022.19
2022-10-16T04:29:29.775Z,101026.38
2022-10-16T04:31:58.010Z,101021.81
2022-10-16T04:34:26.411Z,101033.09
2022-10-16T04:36:54.575Z,101039.09
2022-10-16T04:39:22.933Z,101033.69
2022-10-16T04:41:51.155Z,101025.94
2022-10-16T04:44:20.690Z,101032.19
2022-10-16T04:46:48.810Z,101039.31
2022-10-16T04:49:16.995Z,101049.31
2022-10-16T04:51:45.460Z,101053.66
2022-10-16T04:54:13.946Z,101053.09
2022-10-16T04:56:47.716Z,101056.84
2022-10-16T04:59:16.354Z,101061.19
2022-10-16T05:01:46.225Z,101066.59
2022-10-16T05:04:16.131Z,101061.44
2022-10-16T05:06:45.066Z,101066.59
2022-10-16T05:09:13.234Z,101064.97
2022-10-16T05:11:41.037Z,101076.00
2022-10-16T05:14:08.843Z,101086.81
2022-10-16T05:16:36.846Z,101088.38
2022-10-16T05:21:53.832Z,101087.06
2022-10-16T05:24:21.524Z,101093.06
2022-10-16T05:26:49.363Z,101088.72
2022-10-16T05:29:17.225Z,101094.13
2022-10-16T05:31:45.041Z,101096.25
2022-10-16T05:34:14.339Z,101096.47
2022-10-16T05:36:42.063Z,101093.78
2022-10-16T05:39:09.793Z,101104.59
2022-10-16T05:41:37.468Z,101112.69
2022-10-16T05:44:06.855Z,101111.06
2022-10-16T05:46:34.778Z,101122.94
2022-10-16T05:49:02.759Z,101132.91
2022-10-16T05:51:31.860Z,101129.41
2022-10-16T05:53:59.575Z,101128.56
2022-10-16T05:56:27.332Z,101137.50
2022-10-16T05:58:55.061Z,101145.63
2022-10-16T06:01:25.296Z,101142.09
2022-10-16T06:03:54.074Z,101148.31
2022-10-16T06:06:23.864Z,101152.09
2022-10-16T06:08:53.368Z,101159.38
2022-10-16T06:11:23.038Z,101155.03
2022-10-16T06:13:52.372Z,101157.50
2022-10-16T06:16:20.614Z,101147.03
2022-10-16T06:18:48.760Z,101167.47
2022-10-16T06:21:19.320Z,101177.22
2022-10-16T06:23:47.892Z,101180.16
2022-10-16T06:26:19.546Z,101182.06
2022-10-16T06:28:47.462Z,101176.06
2022-10-16T06:31:16.242Z,101179.81
2022-10-16T06:33:44.588Z,101177.94
2022-10-16T06:36:14.197Z,101189.81
2022-10-16T06:38:42.395Z,101196.28
2022-10-16T06:41:13.344Z,101208.97
2022-10-16T06:43:42.961Z,101210.03
2022-10-16T06:46:12.783Z,101206.50
2022-10-16T06:48:40.765Z,101218.97
2022-10-16T06:51:11.923Z,101228.13
2022-10-16T06:54:01.163Z,101232.72
2022-10-16T06:56:32.758Z,101236.25
2022-10-16T06:59:02.615Z,101238.94
2022-10-16T07:01:30.963Z,101236.47
2022-10-16T07:03:58.975Z,101249.97
2022-10-16T07:06:28.962Z,101252.69
2022-10-16T07:08:57.050Z,101240.59
2022-10-16T07:11:25.885Z,101252.09
2022-10-16T07:13:56.064Z,101263.72
2022-10-16T07:16:28.265Z,101263.72
2022-10-16T07:18:59.736Z,101266.44
2022-10-16T07:21:30.209Z,101274.31
2022-10-16T07:24:00.176Z,101273.50
2022-10-16T07:26:29.720Z,101277.00
2022-10-16T07:28:57.878Z,101282.41
2022-10-16T07:31:27.227Z,101289.47
2022-10-16T07:33:55.586Z,101285.00
2022-10-16T07:36:23.443Z,101293.59
2022-10-16T07:38:52.984Z,101289.00
2022-10-16T07:41:23.430Z,101297.47
2022-10-16T07:43:52.298Z,101307.22
2022-10-16T07:46:21.032Z,101304.41
2022-10-16T07:48:50.334Z,101313.69
2022-10-16T07:51:19.891Z,101324.50
2022-10-16T07:53:48.575Z,101330.13
2022-10-16T07:56:17.732Z,101329.91
2022-10-16T07:58:46.031Z,101335.31
2022-10-16T08:01:16.051Z,101346.72
2022-10-16T08:03:44.753Z,101347.06
2022-10-16T08:06:13.919Z,101348.34
2022-10-16T08:08:41.751Z,101352.13
2022-10-16T08:11:09.551Z,101356.81
2022-10-16T08:13:37.500Z,101352.84
2022-10-16T08:16:08.763Z,101353.41
2022-10-16T08:18:37.587Z,101364.94
2022-10-16T08:21:06.684Z,101371.53
2022-10-16T08:23:36.317Z,101375.63
2022-10-16T08:26:07.790Z,101378.69
2022-10-16T08:28:35.893Z,101376.94
2022-10-16T08:31:08.522Z,101378.34
2022-10-16T08:33:36.991Z,101377.09
2022-10-16T08:36:05.508Z,101370.03
2022-10-16T08:38:35.207Z,101376.03
2022-10-16T08:41:36.821Z,101385.78
2022-10-16T08:44:24.571Z,101390.97
2022-10-16T08:46:58.618Z,101394.63
2022-10-16T08:49:27.085Z,101396.38
2022-10-16T08:51:55.276Z,101410.50
2022-10-16T08:54:31.146Z,101410.03
2022-10-16T08:57:02.810Z,101408.16
2022-10-16T08:59:30.540Z,101395.56
2022-10-16T09:01:58.343Z,101406.50
2022-10-16T09:04:56.817Z,101412.75
2022-10-16T09:07:33.941Z,101411.22
2022-10-16T09:10:24.676Z,101414.75
2022-10-16T09:12:59.218Z,101407.91
2022-10-16T09:15:34.259Z,101415.81
2022-10-16T09:18:11.997Z,101418.50
2022-10-16T09:20:50.072Z,101424.84
2022-10-16T09:23:20.327Z,101402.84
2022-10-16T09:25:51.571Z,101433.44
2022-10-16T09:28:20.980Z,101438.97
2022-10-16T09:30:50.900Z,101437.22
2022-10-16T09:33:22.598Z,101438.03
2022-10-16T09:35:53.079Z,101441.78
2022-10-16T09:38:29.006Z,101440.75
2022-10-16T09:41:03.215Z,101447.78
2022-10-16T09:43:37.489Z,101446.97
2022-10-16T09:46:07.167Z,101447.22
2022-10-16T09:48:39.479Z,101450.03
2022-10-16T09:51:18.487Z,101444.63
2022-10-16T09:53:48.480Z,101451.44
2022-10-16T09:56:26.199Z,101457.69
2022-10-16T09:58:54.996Z,101452.03
2022-10-16T10:01:27.219Z,101456.38
2022-10-16T10:04:02.142Z,101448.03
2022-10-16T10:06:33.200Z,101455.91
2022-10-16T10:09:05.720Z,101461.09
2022-10-16T10:11:46.801Z,101466.03
2022-10-16T10:14:26.620Z,101452.88
2022-10-16T10:17:03.415Z,101464.16
2022-10-16T10:19:33.006Z,101465.56
2022-10-16T10:22:00.947Z,101470.16
2022-10-16T10:24:28.639Z,101466.88
2022-10-16T10:27:09.274Z,101472.41
2022-10-16T10:29:51.383Z,101477.34
2022-10-16T10:32:30.004Z,101483.34
2022-10-16T10:35:15.553Z,101476.88
2022-10-16T10:37:56.252Z,101483.69
2022-10-16T10:40:34.128Z,101481.34
2022-10-16T10:43:09.458Z,101482.16
2022-10-16T10:45:44.674Z,101483.00
2022-10-16T10:48:26.368Z,101484.16
2022-10-16T10:50:59.833Z,101484.75
2022-10-16T10:53:41.084Z,101487.22
2022-10-16T10:56:22.906Z,101490.28
2022-10-16T10:59:16.963Z,101478.84
2022-10-16T11:01:56.203Z,101485.66
2022-10-16T11:04:38.432Z,101492.25
2022-10-16T11:07:08.196Z,101495.31
2022-10-16T11:09:41.401Z,101489.88
2022-10-16T11:12:15.062Z,101492.94
2022-10-16T11:14:49.752Z,101488.94
2022-10-16T11:17:22.293Z,101484.94
2022-10-16T11:19:54.586Z,101488.25
2022-10-16T11:22:31.450Z,101489.91
2022-10-16T11:25:04.740Z,101489.91
2022-10-16T11:27:40.159Z,101495.31
2022-10-16T11:30:20.277Z,101499.75
2022-10-16T11:32:58.833Z,101493.84
2022-10-16T11:35:34.577Z,101489.00
2022-10-16T11:38:09.336Z,101484.06
2022-10-16T11:40:43.846Z,101501.59
2022-10-16T11:43:16.855Z,101486.41
2022-10-16T11:45:51.564Z,101508.88
2022-10-16T11:48:26.702Z,101508.41
2022-10-16T11:50:58.895Z,101503.06
2022-10-16T11:53:39.712Z,101504.47
2022-10-16T11:56:08.487Z,101504.56
2022-10-16T11:58:40.098Z,101507.88
2022-10-16T12:01:21.158Z,101501.97
2022-10-16T12:03:59.182Z,101505.50
2022-10-16T12:06:36.083Z,101507.13
2022-10-16T12:09:05.576Z,101500.66
2022-10-16T12:11:36.838Z,101506.66
2022-10-16T12:14:20.350Z,101502.88
2022-10-16T12:16:58.566Z,101511.84
2022-10-16T12:19:28.651Z,101514.56
2022-10-16T12:21:59.460Z,101515.38
2022-10-16T12:24:38.959Z,101524.19
2022-10-16T12:27:08.994Z,101517.94
2022-10-16T12:29:40.594Z,101508.75
2022-10-16T12:32:45.711Z,101512.38
2022-10-16T12:35:22.864Z,101517.78
2022-10-16T12:37:51.703Z,101516.97
2022-10-16T12:40:28.997Z,101503.41
2022-10-16T12:42:56.835Z,101508.84
2022-10-16T12:45:32.091Z,101491.63
2022-10-16T12:48:02.578Z,101505.16
2022-10-16T12:50:36.773Z,101515.25
2022-10-16T12:53:18.887Z,101507.69
2022-10-16T12:55:57.979Z,101504.50
2022-10-16T12:58:50.041Z,101496.69
2022-10-16T13:01:31.674Z,101497.84
2022-10-16T13:04:20.778Z,101506.00
2022-10-16T13:06:58.359Z,101494.91
2022-10-16T13:09:48.123Z,101493.81
2022-10-16T13:12:37.494Z,101497.94
2022-10-16T13:15:34.703Z,101511.84
2022-10-16T13:18:10.424Z,101509.47
2022-10-16T13:20:53.703Z,101506.75
2022-10-16T13:23:28.359Z,101511.13
2022-10-16T13:26:11.118Z,101515.81
2022-10-16T13:28:41.288Z,101507.44
2022-10-16T13:31:17.400Z,101516.16
2022-10-16T13:33:49.340Z,101520.84
2022-10-16T13:36:24.308Z,101523.88
2022-10-16T13:39:02.552Z,101524.22
2022-10-16T13:41:30.248Z,101528.09
2022-10-16T13:43:59.030Z,101532.19
2022-10-16T13:46:27.736Z,101533.19
2022-10-16T13:48:59.695Z,101521.75
2022-10-16T13:51:30.071Z,101527.00
2022-10-16T13:53:59.161Z,101528.91
2022-10-16T13:56:29.680Z,101527.25
2022-10-16T13:59:01.945Z,101536.47
2022-10-16T14:01:32.691Z,101535.91
2022-10-16T14:04:06.922Z,101542.97
2022-10-16T14:06:37.942Z,101542.97
2022-10-16T14:09:08.595Z,101542.16
2022-10-16T14:11:44.716Z,101538.38
2022-10-16T14:14:13.611Z,101546.50
2022-10-16T14:16:44.550Z,101541.91
2022-10-16T14:19:21.057Z,101529.97
2022-10-16T14:21:50.696Z,101526.19
2022-10-16T14:24:28.407Z,101525.13
2022-10-16T14:26:57.552Z,101519.13
2022-10-16T14:29:27.280Z,101525.38
2022-10-16T14:32:00.275Z,101520.94
2022-10-16T14:34:31.391Z,101523.47
2022-10-16T14:37:01.998Z,101510.97
2022-10-16T14:39:30.418Z,101518.03
2022-10-16T14:42:00.153Z,101515.31
2022-10-16T14:44:33.355Z,101521.81
2022-10-16T14:47:09.820Z,101518.88
2022-10-16T14:49:37.598Z,101518.88
2022-10-16T14:52:12.284Z,101515.41
2022-10-16T14:54:40.712Z,101520.34
2022-10-16T14:57:19.054Z,101525.28
2022-10-16T14:59:47.534Z,101522.31
2022-10-16T15:02:25.109Z,101516.03
2022-10-16T15:04:53.215Z,101509.78
2022-10-16T15:07:22.704Z,101508.16
2022-10-16T15:09:50.865Z,101515.22
2022-10-16T15:12:19.101Z,101511.44
2022-10-16T15:14:46.876Z,101516.03
2022-10-16T15:17:17.432Z,101511.44
2022-10-16T15:19:47.768Z,101512.25
2022-10-16T15:22:15.519Z,101510.63
2022-10-16T15:24:44.747Z,101510.38
2022-10-16T15:27:12.573Z,101504.09
2022-10-16T15:29:40.461Z,101513.91
2022-10-16T15:32:08.459Z,101517.19
2022-10-16T15:34:36.247Z,101513.66
2022-10-16T15:37:05.644Z,101522.38
2022-10-16T15:39:35.672Z,101510.44
2022-10-16T15:42:08.483Z,101508.53
2022-10-16T15:44:36.225Z,101499.31
2022-10-16T15:47:03.997Z,101493.88
2022-10-16T15:49:31.720Z,101504.19
2022-10-16T15:51:59.485Z,101511.75
2022-10-16T15:54:27.263Z,101519.09
2022-10-16T15:56:55.127Z,101520.97
2022-10-16T15:59:24.447Z,101528.31
2022-10-16T16:01:52.284Z,101510.38
2022-10-16T16:07:09.271Z,101491.09
2022-10-16T16:09:37.280Z,101494.63
2022-10-16T16:12:05.128Z,101502.78
2022-10-16T16:14:34.270Z,101505.50
2022-10-16T16:17:03.019Z,101508.47
2022-10-16T16:19:31.868Z,101510.13
2022-10-16T16:21:59.769Z,101490.22
2022-10-16T16:24:27.523Z,101503.03
2022-10-16T16:26:55.373Z,101495.72
2022-10-16T16:29:23.142Z,101496.78
2022-10-16T16:31:58.015Z,101497.59
2022-10-16T16:34:26.518Z,101489.47
2022-10-16T16:36:54.378Z,101490.28
2022-10-16T16:39:22.268Z,101491.34
2022-10-16T16:41:50.096Z,101484.63
2022-10-16T16:44:18.554Z,101513.25
2022-10-16T16:46:47.030Z,101513.84
2022-10-16T16:49:16.555Z,101518.44
2022-10-16T16:51:44.377Z,101523.06
2022-10-16T16:54:13.793Z,101511.63
2022-10-16T16:56:43.685Z,101518.94
2022-10-16T16:59:15.140Z,101526.50
2022-10-16T17:01:43.340Z,101529.22
2022-10-16T17:04:11.266Z,101525.69
2022-10-16T17:06:41.384Z,101512.34
2022-10-16T17:09:10.646Z,101509.56
2022-10-16T17:11:38.482Z,101528.09
2022-10-16T17:14:06.188Z,101521.81
2022-10-16T17:16:36.525Z,101522.91
2022-10-16T17:19:06.084Z,101520.19
2022-10-16T17:21:34.735Z,101522.31
2022-10-16T17:24:04.253Z,101514.09
2022-10-16T17:26:32.436Z,101521.50
2022-10-16T17:29:02.198Z,101515.25
2022-10-16T17:31:32.104Z,101513.34
2022-10-16T17:34:00.440Z,101506.28
2022-10-16T17:36:29.671Z,101513.59
2022-10-16T17:39:00.431Z,101513.59
2022-10-16T17:41:29.571Z,101513.59
2022-10-16T17:43:57.465Z,101521.75
2022-10-16T17:46:25.761Z,101523.63
2022-10-16T17:48:55.707Z,101528.25
2022-10-16T17:51:25.505Z,101527.19
2022-10-16T17:53:54.983Z,101529.06
2022-10-16T17:56:23.608Z,101531.78
2022-10-16T17:58:54.754Z,101531.78
2022-10-16T18:01:24.773Z,101532.59
2022-10-16T18:03:53.148Z,101534.50
2022-10-16T18:06:22.873Z,101542.66
2022-10-16T18:08:51.231Z,101572.53
2022-10-16T18:11:19.598Z,101619.50
2022-10-16T18:13:47.325Z,101635.81
2022-10-16T18:16:17.180Z,101627.66
2022-10-16T18:18:46.090Z,101631.19
2022-10-16T18:21:15.668Z,101639.59
2022-10-16T18:23:49.093Z,101638.75
2022-10-16T18:26:21.079Z,101629.78
2022-10-16T18:28:51.021Z,101624.38
2022-10-16T18:31:20.251Z,101626.25
2022-10-16T18:33:50.807Z,101649.63
2022-10-16T18:36:20.619Z,101640.91
2022-10-16T18:38:48.661Z,101642.78
2022-10-16T18:41:16.529Z,101640.06
2022-10-16T18:43:44.389Z,101638.44
2022-10-16T18:46:14.120Z,101616.94
2022-10-16T18:48:43.978Z,101603.38
2022-10-16T18:51:14.413Z,101593.00
2022-10-16T18:53:43.682Z,101594.91
2022-10-16T18:56:13.035Z,101599.50
2022-10-16T18:58:41.604Z,101600.81
2022-10-16T19:01:16.705Z,101599.16
2022-10-16T19:03:46.160Z,101593.75
2022-10-16T19:06:15.955Z,101602.13
2022-10-16T19:08:44.711Z,101602.38
2022-10-16T19:11:14.132Z,101597.69
2022-10-16T19:13:42.258Z,101594.47
2022-10-16T19:16:20.160Z,101602.88
2022-10-16T19:18:50.832Z,101598.91
2022-10-16T19:21:19.631Z,101614.78
2022-10-16T19:23:48.426Z,101603.34
2022-10-16T19:26:19.279Z,101588.97
2022-10-16T19:28:47.737Z,101596.53
2022-10-16T19:31:18.491Z,101605.50
2022-10-16T19:33:46.870Z,101612.81
2022-10-16T19:36:18.410Z,101621.78
2022-10-16T19:38:47.567Z,101613.88
2022-10-16T19:41:17.204Z,101618.63
2022-10-16T19:43:46.502Z,101622.03
2022-10-16T19:46:16.798Z,101618.47
2022-10-16T19:48:45.340Z,101614.13
2022-10-16T19:51:16.122Z,101614.13
2022-10-16T19:53:43.868Z,101608.69
2022-10-16T19:56:16.201Z,101607.03
2022-10-16T19:58:44.942Z,101615.19
2022-10-16T20:01:13.955Z,101610.81
2022-10-16T20:03:41.816Z,101608.09
2022-10-16T20:06:10.601Z,101606.47
2022-10-16T20:08:41.378Z,101602.09
2022-10-16T20:11:12.823Z,101596.69
2022-10-16T20:13:42.382Z,101596.69
2022-10-16T20:16:11.966Z,101593.13
2022-10-16T20:18:40.061Z,101586.28
2022-10-16T20:21:11.107Z,101587.13
2022-10-16T20:23:41.178Z,101579.81
2022-10-16T20:26:11.388Z,101572.84
2022-10-16T20:28:41.153Z,101584.63
2022-10-16T20:31:12.052Z,101590.06
2022-10-16T20:33:41.400Z,101590.31
2022-10-16T20:36:12.407Z,101582.56
2022-10-16T20:38:41.563Z,101591.59
2022-10-16T20:41:10.213Z,101594.56
2022-10-16T20:43:41.304Z,101590.69
2022-10-16T20:46:09.879Z,101593.75
2022-10-16T20:48:41.290Z,101590.44
2022-10-16T20:51:13.659Z,101591.50
2022-10-16T20:53:43.064Z,101592.34
2022-10-16T20:56:12.776Z,101597.19
2022-10-16T20:58:42.089Z,101590.94
2022-10-16T21:01:11.732Z,101585.75
2022-10-16T21:03:40.188Z,101570.09
2022-10-16T21:06:10.719Z,101573.50
2022-10-16T21:08:40.020Z,101575.38
2022-10-16T21:11:13.727Z,101561.25
2022-10-16T21:13:42.417Z,101567.72
2022-10-16T21:16:11.094Z,101565.25
2022-10-16T21:18:44.093Z,101569.03
2022-10-16T21:21:19.642Z,101579.06
2022-10-16T21:23:47.807Z,101557.75
2022-10-16T21:26:18.233Z,101562.22
2022-10-16T21:28:46.152Z,101559.50
2022-10-16T21:31:15.526Z,101561.38
2022-10-16T21:33:43.825Z,101570.59
2022-10-16T21:36:16.233Z,101561.63
2022-10-16T21:38:44.109Z,101559.41
2022-10-16T21:41:19.237Z,101568.59
2022-10-16T21:43:47.685Z,101569.19
2022-10-16T21:46:19.146Z,101570.25
2022-10-16T21:48:47.375Z,101557.75
2022-10-16T21:51:15.979Z,101551.50
2022-10-16T21:53:43.699Z,101551.75
2022-10-16T21:56:17.860Z,101552.56
2022-10-16T21:58:46.587Z,101559.06
2022-10-16T22:01:16.290Z,101564.50
2022-10-16T22:03:44.421Z,101542.00
2022-10-16T22:06:13.641Z,101567.44
2022-10-16T22:08:42.467Z,101568.75
2022-10-16T22:11:13.068Z,101560.59
2022-10-16T22:13:42.436Z,101567.94
2022-10-16T22:16:10.675Z,101567.09
2022-10-16T22:18:39.621Z,101569.00
2022-10-16T22:21:10.032Z,101555.00
2022-10-16T22:23:38.111Z,101562.16
2022-10-16T22:26:08.202Z,101559.44
2022-10-16T22:28:36.326Z,101565.13
2022-10-16T22:31:07.946Z,101570.53
2022-10-16T22:33:35.934Z,101566.19
2022-10-16T22:36:04.981Z,101573.72
2022-10-16T22:38:33.706Z,101570.19
2022-10-16T22:41:03.510Z,101574.22
2022-10-16T22:43:31.294Z,101575.84
2022-10-16T22:46:05.641Z,101577.75
2022-10-16T22:48:33.453Z,101566.31
2022-10-16T22:51:01.968Z,101565.50
2022-10-16T22:53:30.269Z,101552.66
2022-10-16T22:55:58.072Z,101559.50
2022-10-16T22:58:26.198Z,101564.31
2022-10-16T23:00:54.465Z,101557.03
2022-10-16T23:03:24.014Z,101552.66
2022-10-16T23:05:52.511Z,101539.25
2022-10-16T23:08:20.377Z,101542.06
2022-10-16T23:10:49.684Z,101539.59
2022-10-16T23:13:17.609Z,101531.44
2022-10-16T23:15:46.113Z,101535.22
2022-10-16T23:18:13.955Z,101533.56
2022-10-16T23:20:43.975Z,101528.97
2022-10-16T23:23:11.888Z,101523.78
2022-10-16T23:25:46.954Z,101525.09
2022-10-16T23:30:48.174Z,101530.28
2022-10-16T23:33:15.928Z,101524.84
2022-10-16T23:35:45.109Z,101540.31
2022-10-16T23:38:12.948Z,101523.34
2022-10-16T23:40:40.747Z,101534.31
2022-10-16T23:43:08.527Z,101522.63
2022-10-16T23:45:36.655Z,101528.06
2022-10-16T23:48:04.665Z,101528.06
2022-10-16T23:50:33.254Z,101531.00
2022-10-16T23:53:05.307Z,101536.44
2022-10-16T23:55:35.808Z,101529.34
2022-10-16T23:58:03.962Z,101527.72
